sensor_id;sensor_type;location;lat;lon;timestamp;pressure;altitude;pressure_sealevel;temperature;humidity
39223;BME280;24936;46.328;11.026;2022-08-19T00:02:21;94118.91;;;15.07;100.00
39223;BME280;24936;46.328;11.026;2022-08-19T00:04:47;94115.84;;;15.18;100.00
39223;BME280;24936;46.328;11.026;2022-08-19T00:07:17;94106.81;;;15.08;100.00
39223;BME280;24936;46.328;11.026;2022-08-19T00:09:43;94092.66;;;15.01;100.00
39223;BME280;24936;46.328;11.026;2022-08-19T00:12:08;94081.94;;;15.06;100.00
39223;BME280;24936;46.328;11.026;2022-08-19T00:14:34;94070.84;;;15.01;100.00
39223;BME280;24936;46.328;11.026;2022-08-19T00:17:00;94076.59;;;15.03;100.00
39223;BME280;24936;46.328;11.026;2022-08-19T00:19:26;94071.16;;;15.03;100.00
39223;BME280;24936;46.328;11.026;2022-08-19T00:21:51;94078.25;;;15.00;100.00
39223;BME280;24936;46.328;11.026;2022-08-19T00:24:17;94077.94;;;14.85;100.00
39223;BME280;24936;46.328;11.026;2022-08-19T00:26:43;94079.81;;;14.89;100.00
39223;BME280;24936;46.328;11.026;2022-08-19T00:29:11;94074.13;;;14.83;100.00
39223;BME280;24936;46.328;11.026;2022-08-19T00:31:37;94083.16;;;14.80;100.00
39223;BME280;24936;46.328;11.026;2022-08-19T00:34:03;94094.25;;;14.73;100.00
39223;BME280;24936;46.328;11.026;2022-08-19T00:36:29;94090.66;;;14.63;100.00
39223;BME280;24936;46.328;11.026;2022-08-19T00:38:55;94097.63;;;14.64;100.00
39223;BME280;24936;46.328;11.026;2022-08-19T00:41:22;94102.78;;;14.62;100.00
39223;BME280;24936;46.328;11.026;2022-08-19T00:44:08;94101.00;;;14.68;100.00
39223;BME280;24936;46.328;11.026;2022-08-19T00:46:35;94099.63;;;14.89;100.00
39223;BME280;24936;46.328;11.026;2022-08-19T00:49:07;94095.34;;;14.75;100.00
39223;BME280;24936;46.328;11.026;2022-08-19T00:51:34;94099.28;;;14.74;100.00
39223;BME280;24936;46.328;11.026;2022-08-19T00:54:01;94096.56;;;14.74;100.00
39223;BME280;24936;46.328;11.026;2022-08-19T00:56:27;94088.59;;;14.80;100.00
39223;BME280;24936;46.328;11.026;2022-08-19T00:58:54;94076.63;;;14.77;100.00
39223;BME280;24936;46.328;11.026;2022-08-19T01:01:21;94067.81;;;14.86;100.00
39223;BME280;24936;46.328;11.026;2022-08-19T01:03:46;94056.34;;;15.04;100.00
39223;BME280;24936;46.328;11.026;2022-08-19T01:06:12;94051.97;;;15.06;100.00
39223;BME280;24936;46.328;11.026;2022-08-19T01:08:38;94055.72;;;15.00;100.00
39223;BME280;24936;46.328;11.026;2022-08-19T01:11:04;94057.22;;;15.01;100.00
39223;BME280;24936;46.328;11.026;2022-08-19T01:13:30;94065.16;;;14.95;100.00
39223;BME280;24936;46.328;11.026;2022-08-19T01:16:00;94054.28;;;14.95;100.00
39223;BME280;24936;46.328;11.026;2022-08-19T01:18:27;94043.59;;;14.88;100.00
39223;BME280;24936;46.328;11.026;2022-08-19T01:21:00;94044.81;;;15.00;100.00
39223;BME280;24936;46.328;11.026;2022-08-19T01:23:27;94026.91;;;14.99;100.00
39223;BME280;24936;46.328;11.026;2022-08-19T01:26:12;94012.00;;;15.03;100.00
39223;BME280;24936;46.328;11.026;2022-08-19T01:28:39;94005.13;;;15.11;100.00
39223;BME280;24936;46.328;11.026;2022-08-19T01:31:11;94002.06;;;15.09;100.00
39223;BME280;24936;46.328;11.026;2022-08-19T01:33:38;94011.56;;;15.05;100.00
39223;BME280;24936;46.328;11.026;2022-08-19T01:36:13;94000.31;;;15.03;100.00
39223;BME280;24936;46.328;11.026;2022-08-19T01:38:41;94002.63;;;15.04;100.00
39223;BME280;24936;46.328;11.026;2022-08-19T01:41:08;93996.94;;;14.99;100.00
39223;BME280;24936;46.328;11.026;2022-08-19T01:43:33;93996.91;;;14.77;100.00
39223;BME280;24936;46.328;11.026;2022-08-19T01:45:59;93987.75;;;14.71;100.00
39223;BME280;24936;46.328;11.026;2022-08-19T01:48:24;93984.47;;;14.76;100.00
39223;BME280;24936;46.328;11.026;2022-08-19T01:50:50;93993.16;;;14.83;100.00
39223;BME280;24936;46.328;11.026;2022-08-19T01:53:15;93998.38;;;14.91;100.00
39223;BME280;24936;46.328;11.026;2022-08-19T01:55:42;94011.47;;;14.83;100.00
39223;BME280;24936;46.328;11.026;2022-08-19T01:58:15;94024.56;;;14.75;100.00
39223;BME280;24936;46.328;11.026;2022-08-19T02:00:43;94036.31;;;14.59;100.00
39223;BME280;24936;46.328;11.026;2022-08-19T02:03:08;94051.91;;;14.59;100.00
39223;BME280;24936;46.328;11.026;2022-08-19T02:05:35;94044.03;;;14.61;100.00
39223;BME280;24936;46.328;11.026;2022-08-19T02:08:00;94028.59;;;14.58;100.00
39223;BME280;24936;46.328;11.026;2022-08-19T02:10:26;94009.72;;;14.76;100.00
39223;BME280;24936;46.328;11.026;2022-08-19T02:12:51;94012.44;;;14.76;100.00
39223;BME280;24936;46.328;11.026;2022-08-19T02:15:18;94015.19;;;14.63;100.00
39223;BME280;24936;46.328;11.026;2022-08-19T02:17:44;93988.38;;;14.75;100.00
39223;BME280;24936;46.328;11.026;2022-08-19T02:20:10;93959.53;;;14.77;100.00
39223;BME280;24936;46.328;11.026;2022-08-19T02:22:38;93938.50;;;14.78;100.00
39223;BME280;24936;46.328;11.026;2022-08-19T02:25:07;93929.44;;;14.81;100.00
39223;BME280;24936;46.328;11.026;2022-08-19T02:27:32;93929.69;;;14.74;100.00
39223;BME280;24936;46.328;11.026;2022-08-19T02:29:59;93944.50;;;14.60;100.00
39223;BME280;24936;46.328;11.026;2022-08-19T02:32:24;93957.69;;;14.61;100.00
39223;BME280;24936;46.328;11.026;2022-08-19T02:34:50;93969.88;;;14.70;100.00
39223;BME280;24936;46.328;11.026;2022-08-19T02:37:15;93969.78;;;14.60;100.00
39223;BME280;24936;46.328;11.026;2022-08-19T02:39:59;93966.09;;;14.54;100.00
39223;BME280;24936;46.328;11.026;2022-08-19T02:42:25;93947.97;;;14.48;100.00
39223;BME280;24936;46.328;11.026;2022-08-19T02:44:50;93937.66;;;14.55;100.00
39223;BME280;24936;46.328;11.026;2022-08-19T02:47:18;93916.44;;;14.50;100.00
39223;BME280;24936;46.328;11.026;2022-08-19T02:53:05;93895.50;;;14.34;100.00
39223;BME280;24936;46.328;11.026;2022-08-19T02:55:33;93882.22;;;14.36;100.00
39223;BME280;24936;46.328;11.026;2022-08-19T02:57:59;93869.38;;;14.50;100.00
39223;BME280;24936;46.328;11.026;2022-08-19T03:00:26;93834.66;;;14.54;100.00
39223;BME280;24936;46.328;11.026;2022-08-19T03:02:52;93841.47;;;14.46;100.00
39223;BME280;24936;46.328;11.026;2022-08-19T03:05:17;93834.53;;;14.45;100.00
39223;BME280;24936;46.328;11.026;2022-08-19T03:07:43;93846.63;;;14.44;100.00
39223;BME280;24936;46.328;11.026;2022-08-19T03:10:09;93828.88;;;14.52;100.00
39223;BME280;24936;46.328;11.026;2022-08-19T03:12:36;93835.94;;;14.49;100.00
39223;BME280;24936;46.328;11.026;2022-08-19T03:15:04;93842.72;;;14.32;100.00
39223;BME280;24936;46.328;11.026;2022-08-19T03:17:30;93848.63;;;14.18;100.00
39223;BME280;24936;46.328;11.026;2022-08-19T03:19:56;93864.75;;;14.12;100.00
39223;BME280;24936;46.328;11.026;2022-08-19T03:22:21;93871.91;;;14.19;100.00
39223;BME280;24936;46.328;11.026;2022-08-19T03:24:46;93874.72;;;14.28;100.00
39223;BME280;24936;46.328;11.026;2022-08-19T03:27:12;93869.94;;;14.32;100.00
39223;BME280;24936;46.328;11.026;2022-08-19T03:29:39;93844.78;;;14.41;100.00
39223;BME280;24936;46.328;11.026;2022-08-19T03:32:05;93825.72;;;14.41;100.00
39223;BME280;24936;46.328;11.026;2022-08-19T03:34:32;93830.94;;;14.48;100.00
39223;BME280;24936;46.328;11.026;2022-08-19T03:37:04;93821.59;;;14.36;100.00
39223;BME280;24936;46.328;11.026;2022-08-19T03:39:29;93813.66;;;14.29;100.00
39223;BME280;24936;46.328;11.026;2022-08-19T03:41:55;93826.72;;;14.21;100.00
39223;BME280;24936;46.328;11.026;2022-08-19T03:44:23;93834.97;;;14.30;100.00
39223;BME280;24936;46.328;11.026;2022-08-19T03:46:53;93835.41;;;14.42;100.00
39223;BME280;24936;46.328;11.026;2022-08-19T03:49:21;93827.03;;;14.36;100.00
39223;BME280;24936;46.328;11.026;2022-08-19T03:51:47;93857.53;;;14.18;100.00
39223;BME280;24936;46.328;11.026;2022-08-19T03:54:15;93883.97;;;14.18;100.00
39223;BME280;24936;46.328;11.026;2022-08-19T03:56:43;93881.25;;;14.18;100.00
39223;BME280;24936;46.328;11.026;2022-08-19T03:59:13;93883.78;;;14.12;100.00
39223;BME280;24936;46.328;11.026;2022-08-19T04:01:38;93900.53;;;14.10;100.00
39223;BME280;24936;46.328;11.026;2022-08-19T04:04:04;93917.28;;;14.09;100.00
39223;BME280;24936;46.328;11.026;2022-08-19T04:06:32;93920.31;;;13.98;100.00
39223;BME280;24936;46.328;11.026;2022-08-19T04:09:00;93922.84;;;14.05;100.00
39223;BME280;24936;46.328;11.026;2022-08-19T04:11:34;93916.75;;;14.01;100.00
39223;BME280;24936;46.328;11.026;2022-08-19T04:14:00;93928.16;;;13.96;100.00
39223;BME280;24936;46.328;11.026;2022-08-19T04:16:27;93949.28;;;14.05;100.00
39223;BME280;24936;46.328;11.026;2022-08-19T04:18:59;93940.38;;;14.04;100.00
39223;BME280;24936;46.328;11.026;2022-08-19T04:21:26;93944.59;;;14.05;100.00
39223;BME280;24936;46.328;11.026;2022-08-19T04:23:52;93940.69;;;14.06;100.00
39223;BME280;24936;46.328;11.026;2022-08-19T04:26:21;93946.56;;;14.05;100.00
39223;BME280;24936;46.328;11.026;2022-08-19T04:28:46;93956.44;;;13.99;100.00
39223;BME280;24936;46.328;11.026;2022-08-19T04:31:17;93961.34;;;14.04;100.00
39223;BME280;24936;46.328;11.026;2022-08-19T04:33:43;93970.72;;;14.15;100.00
39223;BME280;24936;46.328;11.026;2022-08-19T04:36:18;93976.03;;;14.19;100.00
39223;BME280;24936;46.328;11.026;2022-08-19T04:38:45;93981.72;;;14.12;100.00
39223;BME280;24936;46.328;11.026;2022-08-19T04:41:10;93985.31;;;14.09;100.00
39223;BME280;24936;46.328;11.026;2022-08-19T04:43:54;93990.75;;;14.09;100.00
39223;BME280;24936;46.328;11.026;2022-08-19T04:46:20;93996.41;;;14.14;100.00
39223;BME280;24936;46.328;11.026;2022-08-19T04:48:45;93997.75;;;14.35;100.00
39223;BME280;24936;46.328;11.026;2022-08-19T04:51:12;93988.91;;;14.44;100.00
39223;BME280;24936;46.328;11.026;2022-08-19T04:53:40;93991.53;;;14.48;100.00
39223;BME280;24936;46.328;11.026;2022-08-19T04:56:12;94005.69;;;14.43;100.00
39223;BME280;24936;46.328;11.026;2022-08-19T04:58:40;94009.38;;;14.49;100.00
39223;BME280;24936;46.328;11.026;2022-08-19T05:01:08;94004.03;;;14.45;100.00
39223;BME280;24936;46.328;11.026;2022-08-19T05:03:35;93993.91;;;14.46;100.00
39223;BME280;24936;46.328;11.026;2022-08-19T05:06:05;93999.06;;;14.31;100.00
39223;BME280;24936;46.328;11.026;2022-08-19T05:08:33;93990.88;;;14.44;100.00
39223;BME280;24936;46.328;11.026;2022-08-19T05:10:59;93990.22;;;14.39;100.00
39223;BME280;24936;46.328;11.026;2022-08-19T05:13:25;93984.44;;;14.37;100.00
39223;BME280;24936;46.328;11.026;2022-08-19T05:15:58;93988.81;;;14.35;100.00
39223;BME280;24936;46.328;11.026;2022-08-19T05:18:25;93993.72;;;14.40;100.00
39223;BME280;24936;46.328;11.026;2022-08-19T05:21:11;94000.91;;;14.47;100.00
39223;BME280;24936;46.328;11.026;2022-08-19T05:23:55;93992.84;;;14.43;100.00
39223;BME280;24936;46.328;11.026;2022-08-19T05:26:21;94003.59;;;14.34;100.00
39223;BME280;24936;46.328;11.026;2022-08-19T05:28:47;93997.59;;;14.26;100.00
39223;BME280;24936;46.328;11.026;2022-08-19T05:31:12;93999.16;;;14.27;100.00
39223;BME280;24936;46.328;11.026;2022-08-19T05:33:38;93992.28;;;14.48;100.00
39223;BME280;24936;46.328;11.026;2022-08-19T05:36:05;93995.47;;;14.47;100.00
39223;BME280;24936;46.328;11.026;2022-08-19T05:38:33;93983.38;;;14.48;100.00
39223;BME280;24936;46.328;11.026;2022-08-19T05:40:58;93991.13;;;14.49;100.00
39223;BME280;24936;46.328;11.026;2022-08-19T05:43:24;93981.41;;;14.61;100.00
39223;BME280;24936;46.328;11.026;2022-08-19T05:45:50;93984.69;;;14.69;100.00
39223;BME280;24936;46.328;11.026;2022-08-19T05:48:16;93986.06;;;14.99;100.00
39223;BME280;24936;46.328;11.026;2022-08-19T05:50:42;93993.47;;;14.98;100.00
39223;BME280;24936;46.328;11.026;2022-08-19T05:53:09;93991.72;;;14.92;100.00
39223;BME280;24936;46.328;11.026;2022-08-19T05:55:35;93980.41;;;14.93;100.00
39223;BME280;24936;46.328;11.026;2022-08-19T05:58:03;93984.69;;;14.81;100.00
39223;BME280;24936;46.328;11.026;2022-08-19T06:00:28;93978.13;;;14.79;100.00
39223;BME280;24936;46.328;11.026;2022-08-19T06:02:55;93994.25;;;14.86;100.00
39223;BME280;24936;46.328;11.026;2022-08-19T06:05:21;93986.41;;;14.88;100.00
39223;BME280;24936;46.328;11.026;2022-08-19T06:07:47;93991.97;;;14.97;100.00
39223;BME280;24936;46.328;11.026;2022-08-19T06:10:12;94004.03;;;15.09;100.00
39223;BME280;24936;46.328;11.026;2022-08-19T06:12:38;94007.22;;;15.29;100.00
39223;BME280;24936;46.328;11.026;2022-08-19T06:15:10;94006.69;;;15.34;100.00
39223;BME280;24936;46.328;11.026;2022-08-19T06:17:36;93993.97;;;15.53;100.00
39223;BME280;24936;46.328;11.026;2022-08-19T06:20:04;93995.84;;;15.78;100.00
39223;BME280;24936;46.328;11.026;2022-08-19T06:22:29;93975.09;;;16.03;100.00
39223;BME280;24936;46.328;11.026;2022-08-19T06:24:55;93975.63;;;16.20;100.00
39223;BME280;24936;46.328;11.026;2022-08-19T06:27:21;93967.84;;;16.40;100.00
39223;BME280;24936;46.328;11.026;2022-08-19T06:29:47;93958.31;;;16.45;100.00
39223;BME280;24936;46.328;11.026;2022-08-19T06:32:15;93964.41;;;16.49;100.00
39223;BME280;24936;46.328;11.026;2022-08-19T06:34:41;93958.13;;;16.39;100.00
39223;BME280;24936;46.328;11.026;2022-08-19T06:37:07;93966.06;;;16.15;100.00
39223;BME280;24936;46.328;11.026;2022-08-19T06:39:36;93975.47;;;16.14;100.00
39223;BME280;24936;46.328;11.026;2022-08-19T06:42:04;93979.22;;;16.39;100.00
39223;BME280;24936;46.328;11.026;2022-08-19T06:44:34;93981.97;;;16.48;100.00
39223;BME280;24936;46.328;11.026;2022-08-19T06:47:07;93983.19;;;16.47;100.00
39223;BME280;24936;46.328;11.026;2022-08-19T06:49:34;93986.75;;;16.66;100.00
39223;BME280;24936;46.328;11.026;2022-08-19T06:51:59;93983.63;;;16.76;100.00
39223;BME280;24936;46.328;11.026;2022-08-19T06:54:26;93973.47;;;16.86;100.00
39223;BME280;24936;46.328;11.026;2022-08-19T06:56:53;93976.34;;;16.83;100.00
39223;BME280;24936;46.328;11.026;2022-08-19T06:59:20;93973.47;;;16.86;100.00
39223;BME280;24936;46.328;11.026;2022-08-19T07:01:49;93984.44;;;16.95;100.00
39223;BME280;24936;46.328;11.026;2022-08-19T07:04:21;93983.97;;;16.97;100.00
39223;BME280;24936;46.328;11.026;2022-08-19T07:06:47;93979.47;;;17.03;100.00
39223;BME280;24936;46.328;11.026;2022-08-19T07:09:13;93976.59;;;17.16;100.00
39223;BME280;24936;46.328;11.026;2022-08-19T07:11:44;93964.28;;;17.20;100.00
39223;BME280;24936;46.328;11.026;2022-08-19T07:14:09;93964.00;;;17.18;100.00
39223;BME280;24936;46.328;11.026;2022-08-19T07:16:35;93974.03;;;17.21;100.00
39223;BME280;24936;46.328;11.026;2022-08-19T07:19:00;93974.19;;;17.36;100.00
39223;BME280;24936;46.328;11.026;2022-08-19T07:21:26;93986.19;;;17.48;100.00
39223;BME280;24936;46.328;11.026;2022-08-19T07:23:54;93996.53;;;17.53;100.00
39223;BME280;24936;46.328;11.026;2022-08-19T07:26:23;94003.50;;;17.26;100.00
39223;BME280;24936;46.328;11.026;2022-08-19T07:28:49;93998.91;;;17.14;100.00
39223;BME280;24936;46.328;11.026;2022-08-19T07:31:16;93986.47;;;17.22;100.00
39223;BME280;24936;46.328;11.026;2022-08-19T07:33:44;93978.16;;;17.44;100.00
39223;BME280;24936;46.328;11.026;2022-08-19T07:36:11;93952.16;;;17.49;100.00
39223;BME280;24936;46.328;11.026;2022-08-19T07:38:38;93953.97;;;17.34;100.00
39223;BME280;24936;46.328;11.026;2022-08-19T07:41:04;93960.66;;;17.33;100.00
39223;BME280;24936;46.328;11.026;2022-08-19T07:43:30;93958.25;;;17.44;100.00
39223;BME280;24936;46.328;11.026;2022-08-19T07:45:55;93960.66;;;17.51;100.00
39223;BME280;24936;46.328;11.026;2022-08-19T07:48:23;93951.22;;;17.24;100.00
39223;BME280;24936;46.328;11.026;2022-08-19T07:50:54;93960.19;;;17.43;100.00
39223;BME280;24936;46.328;11.026;2022-08-19T07:53:21;93966.75;;;17.64;100.00
39223;BME280;24936;46.328;11.026;2022-08-19T07:55:47;93966.72;;;18.01;100.00
39223;BME280;24936;46.328;11.026;2022-08-19T07:58:13;93963.66;;;18.17;100.00
39223;BME280;24936;46.328;11.026;2022-08-19T08:00:40;93959.53;;;18.22;100.00
39223;BME280;24936;46.328;11.026;2022-08-19T08:03:06;93971.53;;;18.24;100.00
39223;BME280;24936;46.328;11.026;2022-08-19T08:05:37;93979.28;;;18.26;100.00
39223;BME280;24936;46.328;11.026;2022-08-19T08:08:21;93984.59;;;18.30;100.00
39223;BME280;24936;46.328;11.026;2022-08-19T08:11:02;93971.84;;;18.17;100.00
39223;BME280;24936;46.328;11.026;2022-08-19T08:13:27;93970.88;;;18.39;100.00
39223;BME280;24936;46.328;11.026;2022-08-19T08:15:53;93955.25;;;18.63;100.00
39223;BME280;24936;46.328;11.026;2022-08-19T08:18:18;93948.34;;;18.77;100.00
39223;BME280;24936;46.328;11.026;2022-08-19T08:20:46;93948.00;;;18.84;100.00
39223;BME280;24936;46.328;11.026;2022-08-19T08:23:12;93948.44;;;18.92;100.00
39223;BME280;24936;46.328;11.026;2022-08-19T08:25:57;93934.91;;;19.12;100.00
39223;BME280;24936;46.328;11.026;2022-08-19T08:28:25;93934.63;;;19.49;100.00
39223;BME280;24936;46.328;11.026;2022-08-19T08:30:51;93924.41;;;19.74;100.00
39223;BME280;24936;46.328;11.026;2022-08-19T08:33:19;93917.69;;;20.04;100.00
39223;BME280;24936;46.328;11.026;2022-08-19T08:35:45;93917.44;;;20.37;100.00
39223;BME280;24936;46.328;11.026;2022-08-19T08:38:11;93908.75;;;20.39;100.00
39223;BME280;24936;46.328;11.026;2022-08-19T08:40:53;93900.78;;;20.41;100.00
39223;BME280;24936;46.328;11.026;2022-08-19T08:46:07;93911.91;;;21.02;100.00
39223;BME280;24936;46.328;11.026;2022-08-19T08:49:01;93902.97;;;21.28;100.00
39223;BME280;24936;46.328;11.026;2022-08-19T08:51:37;93901.50;;;21.73;100.00
39223;BME280;24936;46.328;11.026;2022-08-19T08:54:12;93895.22;;;22.25;100.00
39223;BME280;24936;46.328;11.026;2022-08-19T08:56:40;93889.50;;;22.66;100.00
39223;BME280;24936;46.328;11.026;2022-08-19T08:59:14;93890.25;;;22.66;100.00
39223;BME280;24936;46.328;11.026;2022-08-19T09:01:42;93883.41;;;22.93;100.00
39223;BME280;24936;46.328;11.026;2022-08-19T09:04:07;93871.44;;;23.07;100.00
39223;BME280;24936;46.328;11.026;2022-08-19T09:06:55;93868.50;;;23.22;100.00
39223;BME280;24936;46.328;11.026;2022-08-19T09:09:29;93875.34;;;23.49;100.00
39223;BME280;24936;46.328;11.026;2022-08-19T09:17:21;93881.16;;;23.57;100.00
39223;BME280;24936;46.328;11.026;2022-08-19T09:20:16;93885.63;;;23.43;100.00
39223;BME280;24936;46.328;11.026;2022-08-19T09:22:43;93889.25;;;22.69;100.00
39223;BME280;24936;46.328;11.026;2022-08-19T09:25:13;93886.38;;;22.90;100.00
39223;BME280;24936;46.328;11.026;2022-08-19T09:27:41;93893.44;;;22.96;100.00
39223;BME280;24936;46.328;11.026;2022-08-19T09:30:09;93885.22;;;23.02;100.00
39223;BME280;24936;46.328;11.026;2022-08-19T09:32:35;93869.31;;;23.40;100.00
39223;BME280;24936;46.328;11.026;2022-08-19T09:35:01;93865.88;;;23.73;100.00
39223;BME280;24936;46.328;11.026;2022-08-19T09:37:26;93869.78;;;23.32;100.00
39223;BME280;24936;46.328;11.026;2022-08-19T09:39:52;93868.16;;;22.98;100.00
39223;BME280;24936;46.328;11.026;2022-08-19T09:42:18;93859.91;;;22.66;100.00
39223;BME280;24936;46.328;11.026;2022-08-19T09:44:43;93864.06;;;22.50;100.00
39223;BME280;24936;46.328;11.026;2022-08-19T09:47:10;93865.25;;;22.75;100.00
39223;BME280;24936;46.328;11.026;2022-08-19T09:49:37;93862.16;;;23.05;100.00
39223;BME280;24936;46.328;11.026;2022-08-19T09:52:05;93870.97;;;23.09;100.00
39223;BME280;24936;46.328;11.026;2022-08-19T09:54:32;93880.16;;;22.95;100.00
39223;BME280;24936;46.328;11.026;2022-08-19T09:56:59;93889.16;;;22.52;100.00
39223;BME280;24936;46.328;11.026;2022-08-19T09:59:28;93891.97;;;22.26;100.00
39223;BME280;24936;46.328;11.026;2022-08-19T10:01:53;93888.47;;;22.00;100.00
39223;BME280;24936;46.328;11.026;2022-08-19T10:04:20;93890.56;;;21.58;100.00
39223;BME280;24936;46.328;11.026;2022-08-19T10:06:46;93882.19;;;21.47;100.00
39223;BME280;24936;46.328;11.026;2022-08-19T10:09:14;93872.81;;;21.85;100.00
39223;BME280;24936;46.328;11.026;2022-08-19T10:11:42;93860.25;;;23.28;100.00
39223;BME280;24936;46.328;11.026;2022-08-19T10:14:08;93843.69;;;25.60;100.00
39223;BME280;24936;46.328;11.026;2022-08-19T10:16:36;93837.50;;;26.20;100.00
39223;BME280;24936;46.328;11.026;2022-08-19T10:19:02;93845.09;;;24.50;100.00
39223;BME280;24936;46.328;11.026;2022-08-19T10:21:30;93846.78;;;23.69;100.00
39223;BME280;24936;46.328;11.026;2022-08-19T10:23:59;93855.56;;;23.62;100.00
39223;BME280;24936;46.328;11.026;2022-08-19T10:26:29;93847.81;;;23.66;100.00
39223;BME280;24936;46.328;11.026;2022-08-19T10:28:56;93842.56;;;23.85;100.00
39223;BME280;24936;46.328;11.026;2022-08-19T10:31:24;93836.03;;;23.99;100.00
39223;BME280;24936;46.328;11.026;2022-08-19T10:33:51;93831.16;;;23.49;100.00
39223;BME280;24936;46.328;11.026;2022-08-19T10:36:29;93826.25;;;24.21;100.00
39223;BME280;24936;46.328;11.026;2022-08-19T10:38:57;93827.97;;;23.84;100.00
39223;BME280;24936;46.328;11.026;2022-08-19T10:41:26;93826.94;;;24.61;100.00
39223;BME280;24936;46.328;11.026;2022-08-19T10:43:54;93808.84;;;26.66;100.00
39223;BME280;24936;46.328;11.026;2022-08-19T10:46:21;93798.69;;;26.20;100.00
39223;BME280;24936;46.328;11.026;2022-08-19T10:48:47;93804.53;;;25.39;100.00
39223;BME280;24936;46.328;11.026;2022-08-19T10:51:13;93801.47;;;25.48;100.00
39223;BME280;24936;46.328;11.026;2022-08-19T10:53:58;93785.72;;;27.64;100.00
39223;BME280;24936;46.328;11.026;2022-08-19T10:56:24;93787.31;;;29.09;100.00
39223;BME280;24936;46.328;11.026;2022-08-19T10:59:09;93775.81;;;28.01;100.00
39223;BME280;24936;46.328;11.026;2022-08-19T11:01:35;93780.84;;;25.85;100.00
39223;BME280;24936;46.328;11.026;2022-08-19T11:04:02;93775.34;;;25.74;100.00
39223;BME280;24936;46.328;11.026;2022-08-19T11:06:29;93780.19;;;25.26;100.00
39223;BME280;24936;46.328;11.026;2022-08-19T11:08:56;93776.19;;;24.58;100.00
39223;BME280;24936;46.328;11.026;2022-08-19T11:11:22;93790.31;;;24.10;100.00
39223;BME280;24936;46.328;11.026;2022-08-19T11:13:48;93788.56;;;23.84;100.00
39223;BME280;24936;46.328;11.026;2022-08-19T11:16:18;93788.75;;;23.35;100.00
39223;BME280;24936;46.328;11.026;2022-08-19T11:18:47;93780.47;;;23.58;100.00
39223;BME280;24936;46.328;11.026;2022-08-19T11:23:44;93795.34;;;23.66;100.00
39223;BME280;24936;46.328;11.026;2022-08-19T11:26:10;93794.09;;;23.78;100.00
39223;BME280;24936;46.328;11.026;2022-08-19T11:28:36;93789.56;;;24.20;100.00
39223;BME280;24936;46.328;11.026;2022-08-19T11:31:02;93792.28;;;24.37;100.00
39223;BME280;24936;46.328;11.026;2022-08-19T11:33:30;93796.06;;;24.34;100.00
39223;BME280;24936;46.328;11.026;2022-08-19T11:35:58;93784.03;;;24.09;100.00
39223;BME280;24936;46.328;11.026;2022-08-19T11:38:25;93793.34;;;23.89;100.00
39223;BME280;24936;46.328;11.026;2022-08-19T11:41:02;93794.03;;;23.45;100.00
39223;BME280;24936;46.328;11.026;2022-08-19T11:43:29;93794.78;;;23.56;100.00
39223;BME280;24936;46.328;11.026;2022-08-19T11:45:55;93791.81;;;23.71;100.00
39223;BME280;24936;46.328;11.026;2022-08-19T11:48:22;93793.09;;;23.81;100.00
39223;BME280;24936;46.328;11.026;2022-08-19T11:50:52;93794.28;;;23.58;100.00
39223;BME280;24936;46.328;11.026;2022-08-19T11:53:19;93809.88;;;23.55;100.00
39223;BME280;24936;46.328;11.026;2022-08-19T11:55:48;93807.34;;;23.52;100.00
39223;BME280;24936;46.328;11.026;2022-08-19T11:58:15;93801.78;;;23.35;100.00
39223;BME280;24936;46.328;11.026;2022-08-19T12:00:42;93792.47;;;23.27;100.00
39223;BME280;24936;46.328;11.026;2022-08-19T12:03:10;93798.00;;;23.27;100.00
39223;BME280;24936;46.328;11.026;2022-08-19T12:05:37;93799.00;;;23.29;100.00
39223;BME280;24936;46.328;11.026;2022-08-19T12:08:02;93796.25;;;23.24;100.00
39223;BME280;24936;46.328;11.026;2022-08-19T12:10:28;93794.03;;;23.39;100.00
39223;BME280;24936;46.328;11.026;2022-08-19T12:12:54;93790.25;;;23.37;100.00
39223;BME280;24936;46.328;11.026;2022-08-19T12:15:19;93791.50;;;23.35;100.00
39223;BME280;24936;46.328;11.026;2022-08-19T12:17:45;93797.22;;;23.09;100.00
39223;BME280;24936;46.328;11.026;2022-08-19T12:20:12;93786.69;;;23.19;100.00
39223;BME280;24936;46.328;11.026;2022-08-19T12:22:39;93794.00;;;23.33;100.00
39223;BME280;24936;46.328;11.026;2022-08-19T12:25:07;93783.19;;;23.30;100.00
39223;BME280;24936;46.328;11.026;2022-08-19T12:27:33;93788.78;;;23.47;100.00
39223;BME280;24936;46.328;11.026;2022-08-19T12:29:58;93776.00;;;23.72;100.00
39223;BME280;24936;46.328;11.026;2022-08-19T12:32:26;93780.78;;;23.82;100.00
39223;BME280;24936;46.328;11.026;2022-08-19T12:34:51;93777.03;;;23.74;100.00
39223;BME280;24936;46.328;11.026;2022-08-19T12:37:17;93779.78;;;23.91;100.00
39223;BME280;24936;46.328;11.026;2022-08-19T12:39:43;93788.25;;;24.38;100.00
39223;BME280;24936;46.328;11.026;2022-08-19T12:42:13;93786.53;;;24.46;100.00
39223;BME280;24936;46.328;11.026;2022-08-19T12:44:40;93783.25;;;24.31;100.00
39223;BME280;24936;46.328;11.026;2022-08-19T12:47:07;93770.44;;;24.22;100.00
39223;BME280;24936;46.328;11.026;2022-08-19T12:49:34;93764.63;;;24.48;100.00
39223;BME280;24936;46.328;11.026;2022-08-19T12:52:03;93754.44;;;24.90;100.00
39223;BME280;24936;46.328;11.026;2022-08-19T12:54:29;93746.38;;;26.11;100.00
39223;BME280;24936;46.328;11.026;2022-08-19T12:56:56;93748.16;;;27.01;100.00
39223;BME280;24936;46.328;11.026;2022-08-19T12:59:22;93744.97;;;26.23;100.00